EZY37GY LYTV-EGKK
Flight info
| Callsign | EZY37GY |
|---|---|
| Flight time | 2h 42m |
| Altitude | 38000 |
| Route | NIK DCT GACMO DCT VRANA DCT ELTIB DCT RUGOG DCT RIFEN DCT RISOM DCT NAXAV DCT SAFFA DCT ELMUR DCT RIPUS DCT DITON DCT HOC DCT LUL DCT RLP DCT ROTSI DCT KOTUN DCT NINAL DCT KESAX DCT KUNAV |
| Aircraft | A320/M-SDE3FGHIRWY/LB1 |
Departure
| Time | 2026-05-07 14:38 |
|---|---|
| Airport | Tivat Airport (LYTV) |
Arrival
| Time | 2026-05-07 17:21 |
|---|---|
| Airport | London Gatwick Airport (EGKK) |
| Time | Latitude | Longitude | Altitude | Speed | Heading |
|---|---|---|---|---|---|
| 2026-05-07 14:05 | 42.41157 | 18.71750 | 3 ft | 0 kts | 148° |
| 2026-05-07 14:08 | 42.41165 | 18.71751 | -1 ft | 0 kts | 165° |
| 2026-05-07 14:09 | 42.41166 | 18.71750 | 4 ft | 0 kts | 174° |
| 2026-05-07 14:09 | 42.41157 | 18.71750 | 1 ft | 0 kts | 148° |
| 2026-05-07 14:32 | 42.41155 | 18.71751 | 6 ft | 3 kts | 155° |
| 2026-05-07 14:33 | 42.41125 | 18.71750 | 6 ft | 4 kts | 181° |
| 2026-05-07 14:33 | 42.41062 | 18.71808 | 6 ft | 14 kts | 136° |
| 2026-05-07 14:33 | 42.40995 | 18.71850 | 7 ft | 9 kts | 218° |
| 2026-05-07 14:33 | 42.40951 | 18.71797 | 7 ft | 9 kts | 201° |
| 2026-05-07 14:34 | 42.40879 | 18.71831 | 8 ft | 16 kts | 144° |
| 2026-05-07 14:34 | 42.40764 | 18.71968 | 7 ft | 24 kts | 135° |
| 2026-05-07 14:34 | 42.40684 | 18.72073 | 7 ft | 24 kts | 138° |
| 2026-05-07 14:34 | 42.40513 | 18.72273 | 7 ft | 24 kts | 139° |
| 2026-05-07 14:35 | 42.40379 | 18.72431 | 8 ft | 26 kts | 138° |
| 2026-05-07 14:35 | 42.40247 | 18.72590 | 8 ft | 25 kts | 138° |
| 2026-05-07 14:35 | 42.40114 | 18.72750 | 7 ft | 26 kts | 138° |
| 2026-05-07 14:35 | 42.39977 | 18.72912 | 6 ft | 26 kts | 139° |
| 2026-05-07 14:36 | 42.39840 | 18.73075 | 4 ft | 26 kts | 139° |
| 2026-05-07 14:36 | 42.39747 | 18.73179 | 6 ft | 26 kts | 141° |
| 2026-05-07 14:36 | 42.39671 | 18.73264 | 6 ft | 10 kts | 152° |
| 2026-05-07 14:36 | 42.39630 | 18.73292 | 6 ft | 4 kts | 76° |
| 2026-05-07 14:37 | 42.39674 | 18.73269 | 6 ft | 7 kts | 318° |
| 2026-05-07 14:37 | 42.39790 | 18.73129 | 5 ft | 61 kts | 318° |
| 2026-05-07 14:37 | 42.40294 | 18.72539 | 10 ft | 126 kts | 318° |
| 2026-05-07 14:38 | 42.40798 | 18.71939 | 20 ft | 158 kts | 320° |
| 2026-05-07 14:38 | 42.41611 | 18.71004 | 670 ft | 153 kts | 318° |
| 2026-05-07 14:38 | 42.42170 | 18.69765 | 1170 ft | 162 kts | 275° |
| 2026-05-07 14:38 | 42.41975 | 18.68227 | 1541 ft | 179 kts | 240° |
| 2026-05-07 14:39 | 42.41061 | 18.66963 | 1837 ft | 201 kts | 216° |
| 2026-05-07 14:39 | 42.39919 | 18.65798 | 2522 ft | 205 kts | 214° |
| 2026-05-07 14:39 | 42.38788 | 18.64633 | 3408 ft | 204 kts | 214° |
| 2026-05-07 14:39 | 42.37306 | 18.63096 | 4592 ft | 202 kts | 216° |
| 2026-05-07 14:40 | 42.36567 | 18.62326 | 5148 ft | 203 kts | 217° |
| 2026-05-07 14:40 | 42.35448 | 18.61159 | 5957 ft | 203 kts | 215° |
| 2026-05-07 14:40 | 42.34149 | 18.60409 | 6696 ft | 207 kts | 187° |
| 2026-05-07 14:40 | 42.32721 | 18.60703 | 7384 ft | 215 kts | 157° |
| 2026-05-07 14:41 | 42.31585 | 18.62058 | 8047 ft | 227 kts | 123° |
| 2026-05-07 14:41 | 42.30927 | 18.64039 | 8724 ft | 234 kts | 115° |
| 2026-05-07 14:41 | 42.30634 | 18.66225 | 9401 ft | 245 kts | 86° |
| 2026-05-07 14:41 | 42.31216 | 18.68412 | 9966 ft | 258 kts | 53° |
| 2026-05-07 14:42 | 42.32661 | 18.69936 | 10302 ft | 277 kts | 19° |
| 2026-05-07 14:42 | 42.34517 | 18.70857 | 10643 ft | 299 kts | 17° |
| 2026-05-07 14:42 | 42.36527 | 18.71824 | 11197 ft | 311 kts | 17° |
| 2026-05-07 14:42 | 42.38580 | 18.72822 | 11918 ft | 316 kts | 17° |
| 2026-05-07 14:43 | 42.40656 | 18.73847 | 12669 ft | 320 kts | 16° |
| 2026-05-07 14:43 | 42.42759 | 18.74894 | 13459 ft | 323 kts | 16° |
| 2026-05-07 14:43 | 42.44868 | 18.75947 | 14177 ft | 326 kts | 16° |
| 2026-05-07 14:43 | 42.47010 | 18.77017 | 14825 ft | 330 kts | 16° |
| 2026-05-07 14:44 | 42.49177 | 18.78101 | 15544 ft | 333 kts | 16° |
| 2026-05-07 14:44 | 42.51324 | 18.79176 | 16261 ft | 335 kts | 16° |
| 2026-05-07 14:44 | 42.53517 | 18.80274 | 16924 ft | 338 kts | 16° |
| 2026-05-07 14:44 | 42.55743 | 18.81392 | 17590 ft | 342 kts | 17° |
| 2026-05-07 14:45 | 42.57987 | 18.82521 | 18290 ft | 345 kts | 17° |
| 2026-05-07 14:45 | 42.60250 | 18.83661 | 18865 ft | 349 kts | 17° |
| 2026-05-07 14:45 | 42.62538 | 18.84810 | 19428 ft | 352 kts | 17° |
| 2026-05-07 14:45 | 42.64848 | 18.85969 | 20004 ft | 355 kts | 17° |
| 2026-05-07 14:46 | 42.67175 | 18.87139 | 20572 ft | 358 kts | 17° |
| 2026-05-07 14:46 | 42.69491 | 18.88302 | 21097 ft | 361 kts | 17° |
| 2026-05-07 14:46 | 42.71894 | 18.89507 | 21647 ft | 365 kts | 17° |
| 2026-05-07 14:46 | 42.74299 | 18.90382 | 22165 ft | 363 kts | 4° |
| 2026-05-07 14:47 | 42.76806 | 18.90503 | 22690 ft | 360 kts | 350° |
| 2026-05-07 14:47 | 42.79265 | 18.89865 | 23012 ft | 363 kts | 337° |
| 2026-05-07 14:47 | 42.81588 | 18.88440 | 23154 ft | 370 kts | 323° |
| 2026-05-07 14:47 | 42.83708 | 18.86389 | 23286 ft | 381 kts | 319° |
| 2026-05-07 14:48 | 42.85872 | 18.84213 | 23497 ft | 391 kts | 319° |
| 2026-05-07 14:48 | 42.88084 | 18.82004 | 23856 ft | 396 kts | 320° |
| 2026-05-07 14:48 | 42.90290 | 18.79811 | 24255 ft | 399 kts | 320° |
| 2026-05-07 14:48 | 42.92540 | 18.77577 | 24696 ft | 401 kts | 319° |
| 2026-05-07 14:49 | 42.94798 | 18.75336 | 25107 ft | 403 kts | 319° |
| 2026-05-07 14:49 | 42.97073 | 18.73075 | 25526 ft | 405 kts | 319° |
| 2026-05-07 14:49 | 42.99356 | 18.70799 | 25943 ft | 407 kts | 319° |
| 2026-05-07 14:49 | 43.01644 | 18.68506 | 26363 ft | 409 kts | 319° |
| 2026-05-07 14:50 | 43.03938 | 18.66205 | 26787 ft | 410 kts | 319° |
| 2026-05-07 14:50 | 43.06239 | 18.63894 | 27189 ft | 412 kts | 319° |
| 2026-05-07 14:50 | 43.08553 | 18.61567 | 27600 ft | 414 kts | 319° |
| 2026-05-07 14:50 | 43.10849 | 18.59253 | 27942 ft | 416 kts | 319° |
| 2026-05-07 14:51 | 43.13178 | 18.56878 | 28325 ft | 417 kts | 316° |
| 2026-05-07 14:51 | 43.15275 | 18.54176 | 28697 ft | 414 kts | 307° |
| 2026-05-07 14:51 | 43.17127 | 18.51160 | 29067 ft | 414 kts | 305° |
| 2026-05-07 14:51 | 43.18972 | 18.48113 | 29443 ft | 416 kts | 305° |
| 2026-05-07 14:52 | 43.20826 | 18.45053 | 29826 ft | 418 kts | 305° |
| 2026-05-07 14:52 | 43.22689 | 18.41981 | 30219 ft | 419 kts | 305° |
| 2026-05-07 14:52 | 43.24550 | 18.38912 | 30607 ft | 418 kts | 305° |
| 2026-05-07 14:52 | 43.26410 | 18.35839 | 30951 ft | 419 kts | 305° |
| 2026-05-07 14:53 | 43.28246 | 18.32805 | 31256 ft | 419 kts | 304° |
| 2026-05-07 14:53 | 43.30112 | 18.29719 | 31561 ft | 420 kts | 304° |
| 2026-05-07 14:53 | 43.31971 | 18.26640 | 31984 ft | 418 kts | 304° |
| 2026-05-07 14:53 | 43.33820 | 18.23570 | 32405 ft | 416 kts | 304° |
| 2026-05-07 14:54 | 43.35657 | 18.20517 | 32838 ft | 413 kts | 304° |
| 2026-05-07 14:54 | 43.37481 | 18.17485 | 33290 ft | 411 kts | 304° |
| 2026-05-07 14:54 | 43.39299 | 18.14464 | 33748 ft | 409 kts | 304° |
| 2026-05-07 14:54 | 43.41104 | 18.11465 | 34177 ft | 406 kts | 303° |
| 2026-05-07 14:55 | 43.42899 | 18.08471 | 34501 ft | 405 kts | 304° |
| 2026-05-07 14:55 | 43.44691 | 18.05478 | 34782 ft | 405 kts | 304° |
| 2026-05-07 14:55 | 43.46455 | 18.02524 | 35039 ft | 405 kts | 304° |
| 2026-05-07 14:55 | 43.48248 | 17.99524 | 35288 ft | 406 kts | 304° |
| 2026-05-07 14:56 | 43.50041 | 17.96519 | 35527 ft | 406 kts | 304° |
| 2026-05-07 14:56 | 43.51837 | 17.93507 | 35766 ft | 407 kts | 304° |
| 2026-05-07 14:56 | 43.53636 | 17.90490 | 35961 ft | 407 kts | 304° |
| 2026-05-07 14:56 | 43.55434 | 17.87474 | 36159 ft | 408 kts | 304° |
| 2026-05-07 14:57 | 43.57236 | 17.84444 | 36365 ft | 409 kts | 304° |
| 2026-05-07 14:57 | 43.59039 | 17.81407 | 36602 ft | 409 kts | 304° |
| 2026-05-07 14:57 | 43.60841 | 17.78368 | 36776 ft | 410 kts | 304° |
| 2026-05-07 14:57 | 43.62628 | 17.75355 | 37001 ft | 411 kts | 304° |
| 2026-05-07 14:58 | 43.64437 | 17.72305 | 37190 ft | 411 kts | 304° |
| 2026-05-07 14:58 | 43.66246 | 17.69244 | 37407 ft | 411 kts | 304° |
| 2026-05-07 14:58 | 43.68052 | 17.66188 | 37613 ft | 411 kts | 304° |
| 2026-05-07 14:58 | 43.69862 | 17.63124 | 37815 ft | 411 kts | 304° |
| 2026-05-07 14:59 | 43.71666 | 17.60062 | 38026 ft | 411 kts | 304° |
| 2026-05-07 14:59 | 43.73467 | 17.56995 | 38095 ft | 411 kts | 304° |
| 2026-05-07 14:59 | 43.77362 | 17.51171 | 38105 ft | 415 kts | 312° |
| 2026-05-07 15:00 | 43.81556 | 17.45755 | 38101 ft | 414 kts | 311° |
| 2026-05-07 15:00 | 43.85756 | 17.40303 | 38107 ft | 413 kts | 311° |
| 2026-05-07 15:01 | 43.89942 | 17.34849 | 38092 ft | 413 kts | 311° |
| 2026-05-07 15:01 | 43.94132 | 17.29379 | 38089 ft | 413 kts | 311° |
| 2026-05-07 15:02 | 43.98290 | 17.23946 | 38091 ft | 413 kts | 311° |
| 2026-05-07 15:02 | 44.02479 | 17.18463 | 38092 ft | 414 kts | 311° |
| 2026-05-07 15:03 | 44.06661 | 17.12968 | 38081 ft | 414 kts | 311° |
| 2026-05-07 15:03 | 44.10857 | 17.07453 | 38087 ft | 415 kts | 311° |
| 2026-05-07 15:04 | 44.15056 | 17.01926 | 38079 ft | 415 kts | 311° |
| 2026-05-07 15:04 | 44.19222 | 16.96423 | 38067 ft | 416 kts | 311° |
| 2026-05-07 15:05 | 44.23420 | 16.90869 | 38069 ft | 416 kts | 311° |
| 2026-05-07 15:05 | 44.27622 | 16.85302 | 38061 ft | 417 kts | 311° |
| 2026-05-07 15:06 | 44.31790 | 16.79677 | 38052 ft | 416 kts | 309° |
| 2026-05-07 15:06 | 44.35715 | 16.73825 | 38065 ft | 415 kts | 307° |
| 2026-05-07 15:07 | 44.39573 | 16.67832 | 38064 ft | 415 kts | 307° |
| 2026-05-07 15:07 | 44.43469 | 16.61858 | 38058 ft | 416 kts | 307° |
| 2026-05-07 15:08 | 44.47396 | 16.55907 | 38049 ft | 416 kts | 307° |
| 2026-05-07 15:08 | 44.51303 | 16.49995 | 38045 ft | 417 kts | 307° |
| 2026-05-07 15:09 | 44.55231 | 16.44032 | 38040 ft | 416 kts | 307° |
| 2026-05-07 15:09 | 44.59157 | 16.38057 | 38057 ft | 416 kts | 307° |
| 2026-05-07 15:10 | 44.63082 | 16.32066 | 38036 ft | 417 kts | 307° |
| 2026-05-07 15:10 | 44.66981 | 16.26092 | 38032 ft | 418 kts | 307° |
| 2026-05-07 15:11 | 44.70906 | 16.20059 | 38026 ft | 418 kts | 307° |
| 2026-05-07 15:11 | 44.74831 | 16.14019 | 38024 ft | 419 kts | 307° |
| 2026-05-07 15:12 | 44.78768 | 16.07954 | 38024 ft | 420 kts | 307° |
| 2026-05-07 15:12 | 44.82680 | 16.01917 | 38015 ft | 420 kts | 307° |
| 2026-05-07 15:13 | 44.86616 | 15.95812 | 38020 ft | 421 kts | 307° |
| 2026-05-07 15:13 | 44.90554 | 15.89702 | 38009 ft | 422 kts | 306° |
| 2026-05-07 15:14 | 44.94506 | 15.83575 | 38012 ft | 422 kts | 306° |
| 2026-05-07 15:14 | 44.98452 | 15.77436 | 38031 ft | 422 kts | 306° |
| 2026-05-07 15:15 | 45.02356 | 15.71334 | 38023 ft | 421 kts | 306° |
| 2026-05-07 15:15 | 45.06284 | 15.65178 | 38015 ft | 421 kts | 306° |
| 2026-05-07 15:16 | 45.10208 | 15.59023 | 38020 ft | 421 kts | 306° |
| 2026-05-07 15:16 | 45.14121 | 15.52867 | 38049 ft | 420 kts | 306° |
| 2026-05-07 15:17 | 45.18013 | 15.46741 | 38014 ft | 421 kts | 306° |
| 2026-05-07 15:17 | 45.21926 | 15.40573 | 38007 ft | 421 kts | 306° |
| 2026-05-07 15:18 | 45.25833 | 15.34382 | 38003 ft | 421 kts | 306° |
| 2026-05-07 15:18 | 45.29057 | 15.27632 | 38010 ft | 409 kts | 290° |
| 2026-05-07 15:19 | 45.31540 | 15.20370 | 37996 ft | 409 kts | 290° |
| 2026-05-07 15:19 | 45.34012 | 15.13137 | 38004 ft | 409 kts | 290° |
| 2026-05-07 15:20 | 45.36493 | 15.05851 | 38002 ft | 409 kts | 290° |
| 2026-05-07 15:20 | 45.38970 | 14.98557 | 38020 ft | 410 kts | 290° |
| 2026-05-07 15:21 | 45.41451 | 14.91251 | 38022 ft | 410 kts | 290° |
| 2026-05-07 15:21 | 45.43912 | 14.83979 | 38042 ft | 410 kts | 290° |
| 2026-05-07 15:22 | 45.46380 | 14.76650 | 38020 ft | 410 kts | 290° |
| 2026-05-07 15:22 | 45.48840 | 14.69328 | 38021 ft | 410 kts | 290° |
| 2026-05-07 15:23 | 45.51301 | 14.61996 | 38020 ft | 409 kts | 290° |
| 2026-05-07 15:23 | 45.53739 | 14.54715 | 38050 ft | 410 kts | 290° |
| 2026-05-07 15:24 | 45.56186 | 14.47370 | 38034 ft | 410 kts | 290° |
| 2026-05-07 15:24 | 45.58629 | 14.40011 | 38018 ft | 410 kts | 290° |
| 2026-05-07 15:25 | 45.61074 | 14.32648 | 38014 ft | 410 kts | 290° |
| 2026-05-07 15:25 | 45.63511 | 14.25279 | 38011 ft | 410 kts | 290° |
| 2026-05-07 15:26 | 45.65923 | 14.17950 | 38008 ft | 411 kts | 290° |
| 2026-05-07 15:26 | 45.68357 | 14.10560 | 38000 ft | 411 kts | 290° |
| 2026-05-07 15:27 | 45.70786 | 14.03160 | 38017 ft | 411 kts | 290° |
| 2026-05-07 15:27 | 45.73203 | 13.95727 | 38007 ft | 412 kts | 290° |
| 2026-05-07 15:28 | 45.75624 | 13.88291 | 38003 ft | 412 kts | 290° |
| 2026-05-07 15:28 | 45.78032 | 13.80902 | 38021 ft | 412 kts | 290° |
| 2026-05-07 15:29 | 45.80445 | 13.73456 | 38019 ft | 412 kts | 290° |
| 2026-05-07 15:29 | 45.82854 | 13.65986 | 38011 ft | 413 kts | 290° |
| 2026-05-07 15:30 | 45.85260 | 13.58507 | 38017 ft | 413 kts | 290° |
| 2026-05-07 15:30 | 45.87763 | 13.51135 | 38025 ft | 414 kts | 292° |
| 2026-05-07 15:31 | 45.90382 | 13.43768 | 38017 ft | 414 kts | 292° |
| 2026-05-07 15:31 | 45.92981 | 13.36396 | 38010 ft | 414 kts | 292° |
| 2026-05-07 15:32 | 45.95537 | 13.28992 | 38005 ft | 413 kts | 291° |
| 2026-05-07 15:32 | 45.98079 | 13.21578 | 38000 ft | 414 kts | 291° |
| 2026-05-07 15:33 | 46.00606 | 13.14207 | 38011 ft | 414 kts | 291° |
| 2026-05-07 15:33 | 46.03149 | 13.06791 | 37997 ft | 413 kts | 291° |
| 2026-05-07 15:34 | 46.05687 | 12.99375 | 37992 ft | 413 kts | 291° |
| 2026-05-07 15:34 | 46.07880 | 12.91805 | 38016 ft | 408 kts | 285° |
| 2026-05-07 15:35 | 46.09801 | 12.84107 | 38008 ft | 408 kts | 285° |
| 2026-05-07 15:35 | 46.11706 | 12.76464 | 37996 ft | 408 kts | 285° |
| 2026-05-07 15:36 | 46.13618 | 12.68747 | 37993 ft | 409 kts | 286° |
| 2026-05-07 15:36 | 46.15528 | 12.61026 | 37985 ft | 409 kts | 285° |
| 2026-05-07 15:37 | 46.17429 | 12.53288 | 37983 ft | 410 kts | 285° |
| 2026-05-07 15:37 | 46.19321 | 12.45591 | 37982 ft | 410 kts | 286° |
| 2026-05-07 15:38 | 46.21220 | 12.37840 | 37990 ft | 411 kts | 286° |
| 2026-05-07 15:38 | 46.23111 | 12.30064 | 37993 ft | 411 kts | 285° |
| 2026-05-07 15:39 | 46.24999 | 12.22279 | 37994 ft | 410 kts | 285° |
| 2026-05-07 15:39 | 46.26879 | 12.14510 | 37995 ft | 410 kts | 285° |
| 2026-05-07 15:40 | 46.28742 | 12.06790 | 38004 ft | 409 kts | 285° |
| 2026-05-07 15:40 | 46.30614 | 11.99008 | 37996 ft | 409 kts | 285° |
| 2026-05-07 15:41 | 46.32477 | 11.91237 | 37994 ft | 409 kts | 285° |
| 2026-05-07 15:41 | 46.34335 | 11.83459 | 37989 ft | 409 kts | 285° |
| 2026-05-07 15:42 | 46.36171 | 11.75735 | 37989 ft | 409 kts | 285° |
| 2026-05-07 15:42 | 46.38018 | 11.67937 | 37992 ft | 410 kts | 285° |
| 2026-05-07 15:43 | 46.39863 | 11.60119 | 37989 ft | 410 kts | 285° |
| 2026-05-07 15:43 | 46.41708 | 11.52290 | 37956 ft | 411 kts | 285° |
| 2026-05-07 15:44 | 46.43535 | 11.44499 | 37952 ft | 411 kts | 285° |
| 2026-05-07 15:44 | 46.45364 | 11.36638 | 37957 ft | 412 kts | 285° |
| 2026-05-07 15:45 | 46.47398 | 11.28877 | 37964 ft | 413 kts | 290° |
| 2026-05-07 15:45 | 46.49710 | 11.21249 | 38019 ft | 412 kts | 290° |
| 2026-05-07 15:46 | 46.53144 | 11.09855 | 38027 ft | 412 kts | 290° |
| 2026-05-07 15:47 | 46.55435 | 11.02204 | 38034 ft | 413 kts | 290° |
| 2026-05-07 15:47 | 46.57725 | 10.94553 | 38040 ft | 413 kts | 290° |
| 2026-05-07 15:48 | 46.60008 | 10.86900 | 38021 ft | 412 kts | 290° |
| 2026-05-07 15:48 | 46.62267 | 10.79295 | 38023 ft | 412 kts | 290° |
| 2026-05-07 15:49 | 46.64534 | 10.71628 | 38010 ft | 412 kts | 290° |
| 2026-05-07 15:49 | 46.66791 | 10.63981 | 38002 ft | 412 kts | 290° |
| 2026-05-07 15:50 | 46.69053 | 10.56313 | 38000 ft | 412 kts | 290° |
| 2026-05-07 15:50 | 46.71309 | 10.48630 | 37995 ft | 412 kts | 290° |
| 2026-05-07 15:51 | 46.73540 | 10.40994 | 37988 ft | 412 kts | 290° |
| 2026-05-07 15:51 | 46.75773 | 10.33302 | 37980 ft | 412 kts | 290° |
| 2026-05-07 15:52 | 46.77995 | 10.25579 | 37991 ft | 413 kts | 289° |
| 2026-05-07 15:52 | 46.80209 | 10.17856 | 38002 ft | 413 kts | 290° |
| 2026-05-07 15:53 | 46.82421 | 10.10117 | 38013 ft | 413 kts | 289° |
| 2026-05-07 15:53 | 46.84605 | 10.02430 | 38011 ft | 412 kts | 289° |
| 2026-05-07 15:54 | 46.86804 | 9.94703 | 38025 ft | 413 kts | 289° |
| 2026-05-07 15:54 | 46.89001 | 9.86945 | 38028 ft | 413 kts | 289° |
| 2026-05-07 15:55 | 46.91195 | 9.79196 | 38044 ft | 413 kts | 289° |
| 2026-05-07 15:55 | 46.93371 | 9.71488 | 38039 ft | 412 kts | 289° |
| 2026-05-07 15:56 | 46.95545 | 9.63728 | 38033 ft | 412 kts | 289° |
| 2026-05-07 15:56 | 46.97712 | 9.55964 | 38032 ft | 412 kts | 289° |
| 2026-05-07 15:57 | 46.99878 | 9.48198 | 38029 ft | 412 kts | 289° |
| 2026-05-07 15:57 | 47.02029 | 9.40460 | 38023 ft | 413 kts | 289° |
| 2026-05-07 15:58 | 47.04185 | 9.32682 | 38022 ft | 413 kts | 289° |
| 2026-05-07 15:58 | 47.06344 | 9.24882 | 38021 ft | 413 kts | 289° |
| 2026-05-07 15:59 | 47.08491 | 9.17064 | 38008 ft | 412 kts | 289° |
| 2026-05-07 15:59 | 47.10636 | 9.09252 | 38027 ft | 414 kts | 289° |
| 2026-05-07 16:00 | 47.12763 | 9.01475 | 38024 ft | 414 kts | 289° |
| 2026-05-07 16:00 | 47.14903 | 8.93619 | 38032 ft | 414 kts | 289° |
| 2026-05-07 16:01 | 47.17014 | 8.85752 | 38031 ft | 413 kts | 288° |
| 2026-05-07 16:01 | 47.19022 | 8.77836 | 38030 ft | 413 kts | 288° |
| 2026-05-07 16:02 | 47.20989 | 8.69976 | 38027 ft | 413 kts | 288° |
| 2026-05-07 16:02 | 47.22997 | 8.62036 | 38036 ft | 413 kts | 288° |
| 2026-05-07 16:03 | 47.24998 | 8.54107 | 38036 ft | 413 kts | 288° |
| 2026-05-07 16:03 | 47.26996 | 8.46168 | 38033 ft | 414 kts | 288° |
| 2026-05-07 16:04 | 47.28987 | 8.38283 | 38035 ft | 413 kts | 288° |
| 2026-05-07 16:04 | 47.30979 | 8.30355 | 38031 ft | 413 kts | 288° |
| 2026-05-07 16:05 | 47.32961 | 8.22398 | 38018 ft | 414 kts | 288° |
| 2026-05-07 16:05 | 47.34931 | 8.14414 | 38018 ft | 414 kts | 288° |
| 2026-05-07 16:06 | 47.36898 | 8.06488 | 38013 ft | 414 kts | 288° |
| 2026-05-07 16:06 | 47.38775 | 7.98888 | 38014 ft | 414 kts | 288° |
| 2026-05-07 16:07 | 47.40580 | 7.91490 | 38017 ft | 415 kts | 287° |
| 2026-05-07 16:07 | 47.42412 | 7.84003 | 38022 ft | 415 kts | 288° |
| 2026-05-07 16:08 | 47.44372 | 7.75985 | 38025 ft | 415 kts | 287° |
| 2026-05-07 16:08 | 47.46307 | 7.68012 | 38036 ft | 415 kts | 287° |
| 2026-05-07 16:09 | 47.47791 | 7.59796 | 38046 ft | 414 kts | 282° |
| 2026-05-07 16:09 | 47.49175 | 7.51532 | 38049 ft | 414 kts | 282° |
| 2026-05-07 16:10 | 47.50557 | 7.43262 | 38030 ft | 415 kts | 282° |
| 2026-05-07 16:10 | 47.51905 | 7.35139 | 38042 ft | 415 kts | 282° |
| 2026-05-07 16:11 | 47.53274 | 7.26866 | 38043 ft | 415 kts | 282° |
| 2026-05-07 16:11 | 47.54638 | 7.18565 | 38044 ft | 414 kts | 282° |
| 2026-05-07 16:12 | 47.55991 | 7.10269 | 38048 ft | 414 kts | 282° |
| 2026-05-07 16:12 | 47.57333 | 7.02011 | 38047 ft | 415 kts | 282° |
| 2026-05-07 16:13 | 47.58674 | 6.93757 | 38045 ft | 415 kts | 282° |
| 2026-05-07 16:13 | 47.60018 | 6.85438 | 38049 ft | 415 kts | 281° |
| 2026-05-07 16:14 | 47.61348 | 6.77111 | 38045 ft | 415 kts | 281° |
| 2026-05-07 16:14 | 47.62671 | 6.68773 | 38049 ft | 416 kts | 281° |
| 2026-05-07 16:15 | 47.63986 | 6.60470 | 38044 ft | 416 kts | 281° |
| 2026-05-07 16:15 | 47.65311 | 6.52110 | 38042 ft | 417 kts | 281° |
| 2026-05-07 16:16 | 47.66629 | 6.43747 | 38044 ft | 417 kts | 281° |
| 2026-05-07 16:16 | 47.67932 | 6.35374 | 38043 ft | 416 kts | 281° |
| 2026-05-07 16:17 | 47.69272 | 6.27009 | 38048 ft | 417 kts | 283° |
| 2026-05-07 16:17 | 47.70969 | 6.18833 | 38042 ft | 418 kts | 286° |
| 2026-05-07 16:18 | 47.72826 | 6.10659 | 38040 ft | 418 kts | 286° |
| 2026-05-07 16:18 | 47.74619 | 6.02454 | 38043 ft | 418 kts | 285° |
| 2026-05-07 16:19 | 47.76337 | 5.94263 | 38047 ft | 418 kts | 285° |
| 2026-05-07 16:19 | 47.78047 | 5.86008 | 38056 ft | 418 kts | 285° |
| 2026-05-07 16:20 | 47.79763 | 5.77741 | 38050 ft | 418 kts | 285° |
| 2026-05-07 16:20 | 47.81486 | 5.69473 | 38048 ft | 419 kts | 285° |
| 2026-05-07 16:21 | 47.83193 | 5.61249 | 38048 ft | 419 kts | 285° |
| 2026-05-07 16:21 | 47.84909 | 5.52963 | 38049 ft | 419 kts | 285° |
| 2026-05-07 16:22 | 47.86604 | 5.44699 | 38057 ft | 419 kts | 285° |
| 2026-05-07 16:22 | 47.88300 | 5.36391 | 38056 ft | 419 kts | 284° |
| 2026-05-07 16:23 | 47.90058 | 5.28110 | 38062 ft | 421 kts | 291° |
| 2026-05-07 16:23 | 47.93154 | 5.20761 | 38057 ft | 427 kts | 309° |
| 2026-05-07 16:24 | 47.97160 | 5.14209 | 38063 ft | 427 kts | 309° |
| 2026-05-07 16:24 | 48.01149 | 5.07631 | 38069 ft | 428 kts | 309° |
| 2026-05-07 16:25 | 48.05130 | 5.01026 | 38067 ft | 428 kts | 309° |
| 2026-05-07 16:25 | 48.09088 | 4.94462 | 38068 ft | 428 kts | 309° |
| 2026-05-07 16:26 | 48.13071 | 4.87856 | 38063 ft | 428 kts | 309° |
| 2026-05-07 16:26 | 48.17043 | 4.81227 | 38048 ft | 428 kts | 309° |
| 2026-05-07 16:27 | 48.21020 | 4.74571 | 38049 ft | 428 kts | 309° |
| 2026-05-07 16:27 | 48.24992 | 4.67916 | 38058 ft | 428 kts | 309° |
| 2026-05-07 16:28 | 48.28936 | 4.61291 | 38056 ft | 428 kts | 309° |
| 2026-05-07 16:28 | 48.32906 | 4.54612 | 38054 ft | 428 kts | 309° |
| 2026-05-07 16:29 | 48.36871 | 4.47931 | 38061 ft | 428 kts | 309° |
| 2026-05-07 16:29 | 48.40836 | 4.41230 | 38055 ft | 429 kts | 309° |
| 2026-05-07 16:30 | 48.44766 | 4.34569 | 38051 ft | 429 kts | 309° |
| 2026-05-07 16:30 | 48.48724 | 4.27836 | 38053 ft | 429 kts | 308° |
| 2026-05-07 16:31 | 48.52667 | 4.21093 | 38054 ft | 429 kts | 308° |
| 2026-05-07 16:31 | 48.56613 | 4.14333 | 38055 ft | 429 kts | 308° |
| 2026-05-07 16:32 | 48.60539 | 4.07618 | 38061 ft | 429 kts | 308° |
| 2026-05-07 16:32 | 48.64488 | 4.00857 | 38057 ft | 429 kts | 308° |
| 2026-05-07 16:33 | 48.68430 | 3.94071 | 38050 ft | 429 kts | 308° |
| 2026-05-07 16:33 | 48.72360 | 3.87274 | 38050 ft | 429 kts | 309° |
| 2026-05-07 16:34 | 48.76481 | 3.80776 | 38053 ft | 431 kts | 313° |
| 2026-05-07 16:34 | 48.80835 | 3.74509 | 38049 ft | 431 kts | 314° |
| 2026-05-07 16:35 | 48.85173 | 3.68230 | 38050 ft | 431 kts | 313° |
| 2026-05-07 16:35 | 48.89451 | 3.61850 | 38052 ft | 431 kts | 312° |
| 2026-05-07 16:36 | 48.93700 | 3.55427 | 38050 ft | 431 kts | 312° |
| 2026-05-07 16:36 | 48.97927 | 3.49051 | 38052 ft | 431 kts | 312° |
| 2026-05-07 16:37 | 49.02191 | 3.42625 | 38056 ft | 431 kts | 312° |
| 2026-05-07 16:37 | 49.06452 | 3.36192 | 38055 ft | 431 kts | 312° |
| 2026-05-07 16:38 | 49.10719 | 3.29743 | 38050 ft | 432 kts | 312° |
| 2026-05-07 16:38 | 49.14982 | 3.23280 | 38053 ft | 432 kts | 312° |
| 2026-05-07 16:39 | 49.19210 | 3.16843 | 38048 ft | 432 kts | 312° |
| 2026-05-07 16:39 | 49.23458 | 3.10350 | 38051 ft | 432 kts | 312° |
| 2026-05-07 16:40 | 49.27703 | 3.03832 | 38056 ft | 432 kts | 312° |
| 2026-05-07 16:40 | 49.31952 | 2.97315 | 38051 ft | 433 kts | 312° |
| 2026-05-07 16:41 | 49.36181 | 2.90824 | 38051 ft | 433 kts | 312° |
| 2026-05-07 16:41 | 49.40435 | 2.84291 | 38051 ft | 433 kts | 312° |
| 2026-05-07 16:42 | 49.44679 | 2.77732 | 38052 ft | 433 kts | 312° |
| 2026-05-07 16:42 | 49.48916 | 2.71150 | 38053 ft | 433 kts | 312° |
| 2026-05-07 16:43 | 49.53152 | 2.64551 | 38064 ft | 433 kts | 312° |
| 2026-05-07 16:43 | 49.57358 | 2.57998 | 37759 ft | 433 kts | 312° |
| 2026-05-07 16:43 | 49.59476 | 2.54695 | 37487 ft | 433 kts | 312° |
| 2026-05-07 16:44 | 49.61560 | 2.51358 | 37217 ft | 431 kts | 310° |
| 2026-05-07 16:44 | 49.63551 | 2.47918 | 36961 ft | 430 kts | 308° |
| 2026-05-07 16:44 | 49.65484 | 2.44396 | 36692 ft | 429 kts | 307° |
| 2026-05-07 16:44 | 49.67382 | 2.40830 | 36422 ft | 429 kts | 307° |
| 2026-05-07 16:45 | 49.69267 | 2.37276 | 36182 ft | 428 kts | 307° |
| 2026-05-07 16:45 | 49.71138 | 2.33775 | 35940 ft | 427 kts | 307° |
| 2026-05-07 16:45 | 49.73040 | 2.30261 | 35687 ft | 425 kts | 307° |
| 2026-05-07 16:45 | 49.74943 | 2.26782 | 35439 ft | 422 kts | 308° |
| 2026-05-07 16:46 | 49.76837 | 2.23340 | 35203 ft | 420 kts | 308° |
| 2026-05-07 16:46 | 49.78726 | 2.19904 | 34955 ft | 418 kts | 308° |
| 2026-05-07 16:46 | 49.80603 | 2.16482 | 34709 ft | 415 kts | 308° |
| 2026-05-07 16:46 | 49.82459 | 2.13087 | 34476 ft | 413 kts | 307° |
| 2026-05-07 16:47 | 49.84304 | 2.09697 | 34226 ft | 410 kts | 307° |
| 2026-05-07 16:47 | 49.86132 | 2.06323 | 33988 ft | 408 kts | 307° |
| 2026-05-07 16:47 | 49.87924 | 2.03007 | 33715 ft | 405 kts | 307° |
| 2026-05-07 16:47 | 49.89730 | 1.99666 | 33436 ft | 403 kts | 307° |
| 2026-05-07 16:48 | 49.91530 | 1.96345 | 33161 ft | 402 kts | 307° |
| 2026-05-07 16:48 | 49.93325 | 1.93031 | 32889 ft | 400 kts | 307° |
| 2026-05-07 16:48 | 49.95112 | 1.89720 | 32618 ft | 398 kts | 307° |
| 2026-05-07 16:48 | 49.96881 | 1.86432 | 32366 ft | 396 kts | 307° |
| 2026-05-07 16:49 | 49.98638 | 1.83168 | 32102 ft | 394 kts | 307° |
| 2026-05-07 16:49 | 50.00390 | 1.79906 | 31842 ft | 392 kts | 307° |
| 2026-05-07 16:49 | 50.02137 | 1.76651 | 31582 ft | 391 kts | 307° |
| 2026-05-07 16:49 | 50.03872 | 1.73411 | 31326 ft | 390 kts | 307° |
| 2026-05-07 16:50 | 50.05579 | 1.70213 | 31065 ft | 388 kts | 307° |
| 2026-05-07 16:50 | 50.07351 | 1.67080 | 30745 ft | 385 kts | 313° |
| 2026-05-07 16:50 | 50.09345 | 1.64311 | 30290 ft | 382 kts | 316° |
| 2026-05-07 16:50 | 50.11350 | 1.61609 | 29790 ft | 380 kts | 316° |
| 2026-05-07 16:51 | 50.13334 | 1.58938 | 29346 ft | 374 kts | 316° |
| 2026-05-07 16:51 | 50.15289 | 1.56297 | 28913 ft | 369 kts | 316° |
| 2026-05-07 16:51 | 50.17210 | 1.53690 | 28498 ft | 364 kts | 316° |
| 2026-05-07 16:51 | 50.19107 | 1.51101 | 28096 ft | 360 kts | 316° |
| 2026-05-07 16:52 | 50.20975 | 1.48551 | 27663 ft | 356 kts | 316° |
| 2026-05-07 16:52 | 50.22829 | 1.46023 | 27262 ft | 352 kts | 316° |
| 2026-05-07 16:52 | 50.24660 | 1.43520 | 26846 ft | 348 kts | 316° |
| 2026-05-07 16:52 | 50.26453 | 1.41075 | 26442 ft | 345 kts | 316° |
| 2026-05-07 16:53 | 50.28252 | 1.38613 | 26031 ft | 342 kts | 316° |
| 2026-05-07 16:53 | 50.30034 | 1.36170 | 25606 ft | 340 kts | 316° |
| 2026-05-07 16:53 | 50.31811 | 1.33732 | 25178 ft | 339 kts | 316° |
| 2026-05-07 16:53 | 50.33578 | 1.31307 | 24741 ft | 337 kts | 316° |
| 2026-05-07 16:54 | 50.35338 | 1.28888 | 24311 ft | 336 kts | 316° |
| 2026-05-07 16:54 | 50.37092 | 1.26475 | 23865 ft | 335 kts | 316° |
| 2026-05-07 16:54 | 50.38842 | 1.24068 | 23384 ft | 335 kts | 316° |
| 2026-05-07 16:54 | 50.40590 | 1.21659 | 22926 ft | 333 kts | 316° |
| 2026-05-07 16:55 | 50.42296 | 1.19304 | 22508 ft | 330 kts | 316° |
| 2026-05-07 16:55 | 50.44015 | 1.16928 | 22073 ft | 328 kts | 316° |
| 2026-05-07 16:55 | 50.45721 | 1.14569 | 21654 ft | 326 kts | 316° |
| 2026-05-07 16:55 | 50.47422 | 1.12220 | 21225 ft | 325 kts | 316° |
| 2026-05-07 16:56 | 50.49110 | 1.09882 | 20830 ft | 323 kts | 316° |
| 2026-05-07 16:56 | 50.50792 | 1.07551 | 20422 ft | 322 kts | 316° |
| 2026-05-07 16:56 | 50.53892 | 1.02546 | 19624 ft | 318 kts | 310° |
| 2026-05-07 16:57 | 50.55398 | 1.00005 | 19221 ft | 318 kts | 311° |
| 2026-05-07 16:57 | 50.56905 | 0.97465 | 18823 ft | 317 kts | 311° |
| 2026-05-07 16:57 | 50.58408 | 0.94928 | 18426 ft | 317 kts | 311° |
| 2026-05-07 16:57 | 50.59908 | 0.92391 | 18001 ft | 317 kts | 311° |
| 2026-05-07 16:58 | 50.61407 | 0.89857 | 17603 ft | 315 kts | 311° |
| 2026-05-07 16:58 | 50.62881 | 0.87368 | 17220 ft | 314 kts | 311° |
| 2026-05-07 16:58 | 50.64366 | 0.84855 | 16841 ft | 313 kts | 311° |
| 2026-05-07 16:58 | 50.65842 | 0.82351 | 16462 ft | 312 kts | 311° |
| 2026-05-07 16:59 | 50.67315 | 0.79845 | 16086 ft | 312 kts | 310° |
| 2026-05-07 16:59 | 50.68747 | 0.77268 | 15624 ft | 314 kts | 308° |
| 2026-05-07 16:59 | 50.70138 | 0.74587 | 15145 ft | 317 kts | 307° |
| 2026-05-07 16:59 | 50.71506 | 0.71864 | 14844 ft | 313 kts | 306° |
| 2026-05-07 17:00 | 50.72840 | 0.69183 | 14598 ft | 309 kts | 306° |
| 2026-05-07 17:00 | 50.74147 | 0.66561 | 14285 ft | 307 kts | 306° |
| 2026-05-07 17:00 | 50.75468 | 0.63929 | 14026 ft | 304 kts | 307° |
| 2026-05-07 17:00 | 50.76771 | 0.61356 | 13906 ft | 295 kts | 307° |
| 2026-05-07 17:01 | 50.78038 | 0.58868 | 13775 ft | 287 kts | 307° |
| 2026-05-07 17:01 | 50.79273 | 0.56444 | 13641 ft | 278 kts | 307° |
| 2026-05-07 17:01 | 50.80467 | 0.54095 | 13447 ft | 271 kts | 307° |
| 2026-05-07 17:01 | 50.81637 | 0.51788 | 13143 ft | 268 kts | 307° |
| 2026-05-07 17:02 | 50.82801 | 0.49492 | 12812 ft | 267 kts | 307° |
| 2026-05-07 17:02 | 50.83568 | 0.47979 | 12590 ft | 266 kts | 307° |
| 2026-05-07 17:02 | 50.84713 | 0.46159 | 12310 ft | 266 kts | 319° |
| 2026-05-07 17:02 | 50.86180 | 0.44374 | 11982 ft | 265 kts | 321° |
| 2026-05-07 17:03 | 50.88139 | 0.42088 | 11556 ft | 263 kts | 321° |
| 2026-05-07 17:03 | 50.89612 | 0.40375 | 11230 ft | 263 kts | 321° |
| 2026-05-07 17:03 | 50.91086 | 0.38662 | 10910 ft | 262 kts | 321° |
| 2026-05-07 17:03 | 50.92057 | 0.37536 | 10705 ft | 261 kts | 321° |
| 2026-05-07 17:04 | 50.93538 | 0.35816 | 10393 ft | 260 kts | 321° |
| 2026-05-07 17:04 | 50.94975 | 0.34149 | 10096 ft | 258 kts | 321° |
| 2026-05-07 17:04 | 50.96423 | 0.32472 | 9788 ft | 257 kts | 321° |
| 2026-05-07 17:04 | 50.97864 | 0.30803 | 9479 ft | 256 kts | 321° |
| 2026-05-07 17:05 | 50.99234 | 0.29035 | 9170 ft | 252 kts | 308° |
| 2026-05-07 17:05 | 50.99988 | 0.26607 | 8881 ft | 245 kts | 278° |
| 2026-05-07 17:05 | 50.99997 | 0.23932 | 8558 ft | 242 kts | 263° |
| 2026-05-07 17:05 | 50.99813 | 0.21283 | 8239 ft | 242 kts | 262° |
| 2026-05-07 17:06 | 50.99604 | 0.18638 | 7945 ft | 241 kts | 262° |
| 2026-05-07 17:06 | 50.99392 | 0.16001 | 7643 ft | 240 kts | 261° |
| 2026-05-07 17:06 | 50.99175 | 0.13375 | 7340 ft | 240 kts | 262° |
| 2026-05-07 17:06 | 50.98942 | 0.10739 | 7041 ft | 240 kts | 261° |
| 2026-05-07 17:07 | 50.98701 | 0.08116 | 6998 ft | 241 kts | 261° |
| 2026-05-07 17:07 | 50.98459 | 0.05511 | 7012 ft | 242 kts | 261° |
| 2026-05-07 17:07 | 50.98212 | 0.02875 | 7029 ft | 242 kts | 261° |
| 2026-05-07 17:07 | 50.97966 | 0.00235 | 7039 ft | 242 kts | 261° |
| 2026-05-07 17:08 | 50.97719 | -0.02409 | 7059 ft | 242 kts | 261° |
| 2026-05-07 17:08 | 50.97469 | -0.05046 | 7061 ft | 241 kts | 261° |
| 2026-05-07 17:08 | 50.97219 | -0.07676 | 7060 ft | 241 kts | 261° |
| 2026-05-07 17:08 | 50.96969 | -0.10308 | 7055 ft | 241 kts | 261° |
| 2026-05-07 17:09 | 50.96718 | -0.12940 | 7054 ft | 241 kts | 261° |
| 2026-05-07 17:09 | 50.96466 | -0.15575 | 7061 ft | 241 kts | 261° |
| 2026-05-07 17:09 | 50.96220 | -0.18156 | 7056 ft | 241 kts | 261° |
| 2026-05-07 17:09 | 50.95966 | -0.20806 | 7060 ft | 242 kts | 261° |
| 2026-05-07 17:10 | 50.95714 | -0.23432 | 7055 ft | 241 kts | 261° |
| 2026-05-07 17:10 | 50.95461 | -0.26069 | 7059 ft | 241 kts | 261° |
| 2026-05-07 17:10 | 50.95209 | -0.28693 | 7056 ft | 241 kts | 261° |
| 2026-05-07 17:10 | 50.95013 | -0.31333 | 7049 ft | 241 kts | 272° |
| 2026-05-07 17:11 | 50.95390 | -0.33917 | 7058 ft | 241 kts | 289° |
| 2026-05-07 17:11 | 50.95977 | -0.36406 | 7057 ft | 242 kts | 291° |
| 2026-05-07 17:11 | 50.96589 | -0.38893 | 7057 ft | 242 kts | 291° |
| 2026-05-07 17:11 | 50.97199 | -0.41364 | 6950 ft | 239 kts | 291° |
| 2026-05-07 17:12 | 50.97802 | -0.43827 | 6628 ft | 240 kts | 291° |
| 2026-05-07 17:12 | 50.98397 | -0.46294 | 6319 ft | 239 kts | 291° |
| 2026-05-07 17:12 | 50.98976 | -0.48733 | 5998 ft | 239 kts | 291° |
| 2026-05-07 17:12 | 50.99556 | -0.51203 | 5679 ft | 239 kts | 291° |
| 2026-05-07 17:13 | 51.00135 | -0.53677 | 5370 ft | 238 kts | 291° |
| 2026-05-07 17:13 | 51.00712 | -0.56135 | 5078 ft | 237 kts | 291° |
| 2026-05-07 17:13 | 51.01373 | -0.58512 | 4869 ft | 231 kts | 302° |
| 2026-05-07 17:13 | 51.02501 | -0.60252 | 4531 ft | 230 kts | 333° |
| 2026-05-07 17:14 | 51.03996 | -0.61122 | 4151 ft | 230 kts | 351° |
| 2026-05-07 17:14 | 51.05580 | -0.61180 | 4001 ft | 226 kts | 9° |
| 2026-05-07 17:14 | 51.06957 | -0.60241 | 4000 ft | 210 kts | 34° |
| 2026-05-07 17:14 | 51.08206 | -0.59190 | 3998 ft | 197 kts | 27° |
| 2026-05-07 17:15 | 51.09217 | -0.57901 | 4037 ft | 188 kts | 52° |
| 2026-05-07 17:15 | 51.09981 | -0.56187 | 4023 ft | 186 kts | 57° |
| 2026-05-07 17:15 | 51.10527 | -0.54363 | 4005 ft | 186 kts | 81° |
| 2026-05-07 17:15 | 51.10623 | -0.52310 | 4010 ft | 186 kts | 89° |
| 2026-05-07 17:16 | 51.10607 | -0.50254 | 4010 ft | 186 kts | 91° |
| 2026-05-07 17:16 | 51.10715 | -0.48205 | 4007 ft | 186 kts | 81° |
| 2026-05-07 17:16 | 51.10967 | -0.46184 | 4008 ft | 186 kts | 78° |
| 2026-05-07 17:16 | 51.11250 | -0.44162 | 3731 ft | 188 kts | 77° |
| 2026-05-07 17:17 | 51.11549 | -0.42132 | 3287 ft | 188 kts | 77° |
| 2026-05-07 17:17 | 51.11845 | -0.40131 | 3008 ft | 184 kts | 78° |
| 2026-05-07 17:17 | 51.12136 | -0.38134 | 2819 ft | 186 kts | 78° |
| 2026-05-07 17:17 | 51.12428 | -0.36098 | 2308 ft | 191 kts | 78° |
| 2026-05-07 17:18 | 51.12716 | -0.34085 | 1940 ft | 184 kts | 80° |
| 2026-05-07 17:18 | 51.12987 | -0.32175 | 1706 ft | 171 kts | 81° |
| 2026-05-07 17:18 | 51.13241 | -0.30364 | 1451 ft | 165 kts | 79° |
| 2026-05-07 17:18 | 51.13477 | -0.28675 | 1227 ft | 151 kts | 80° |
| 2026-05-07 17:19 | 51.13667 | -0.27315 | 1060 ft | 145 kts | 80° |
| 2026-05-07 17:19 | 51.13897 | -0.25778 | 830 ft | 140 kts | 79° |
| 2026-05-07 17:19 | 51.14102 | -0.24262 | 667 ft | 140 kts | 81° |
| 2026-05-07 17:19 | 51.14306 | -0.22758 | 485 ft | 138 kts | 79° |
| 2026-05-07 17:20 | 51.14506 | -0.21264 | 333 ft | 137 kts | 79° |
| 2026-05-07 17:20 | 51.14707 | -0.19810 | 222 ft | 133 kts | 80° |
| 2026-05-07 17:20 | 51.14885 | -0.18514 | 213 ft | 109 kts | 78° |
| 2026-05-07 17:20 | 51.15016 | -0.17568 | 215 ft | 66 kts | 78° |
| 2026-05-07 17:21 | 51.15077 | -0.17126 | 213 ft | 27 kts | 77° |
| 2026-05-07 17:21 | 51.15119 | -0.16833 | 212 ft | 27 kts | 66° |
| 2026-05-07 17:21 | 51.15233 | -0.16822 | 206 ft | 9 kts | 353° |
| 2026-05-07 17:21 | 51.15257 | -0.16825 | 204 ft | 0 kts | 356° |
| 2026-05-07 17:23 | 51.15259 | -0.16825 | 204 ft | 2 kts | 357° |
| 2026-05-07 17:23 | 51.15340 | -0.16808 | 213 ft | 15 kts | 347° |
| 2026-05-07 17:23 | 51.15357 | -0.16951 | 209 ft | 16 kts | 256° |
| 2026-05-07 17:23 | 51.15333 | -0.17116 | 204 ft | 15 kts | 258° |
| 2026-05-07 17:24 | 51.15315 | -0.17270 | 212 ft | 13 kts | 255° |
| 2026-05-07 17:24 | 51.15345 | -0.17368 | 215 ft | 11 kts | 339° |
| 2026-05-07 17:24 | 51.15430 | -0.17397 | 204 ft | 13 kts | 348° |
| 2026-05-07 17:24 | 51.15517 | -0.17427 | 204 ft | 12 kts | 347° |
| 2026-05-07 17:25 | 51.15598 | -0.17456 | 210 ft | 11 kts | 347° |
| 2026-05-07 17:25 | 51.15671 | -0.17482 | 207 ft | 11 kts | 347° |
| 2026-05-07 17:25 | 51.15740 | -0.17498 | 209 ft | 9 kts | 12° |
| 2026-05-07 17:25 | 51.15772 | -0.17426 | 208 ft | 8 kts | 77° |
| 2026-05-07 17:26 | 51.15791 | -0.17291 | 206 ft | 16 kts | 78° |
| 2026-05-07 17:26 | 51.15811 | -0.17140 | 207 ft | 15 kts | 77° |
| 2026-05-07 17:26 | 51.15879 | -0.17067 | 204 ft | 11 kts | 17° |
| 2026-05-07 17:26 | 51.15930 | -0.17064 | 213 ft | 7 kts | 317° |
| 2026-05-07 17:27 | 51.15962 | -0.17116 | 210 ft | 6 kts | 315° |
| 2026-05-07 17:27 | 51.15971 | -0.17129 | 214 ft | 0 kts | 315° |